createdAt,value
2017-03-13T00:00:54.711Z,0
2017-03-13T00:02:04.892Z,0
2017-03-13T00:03:14.238Z,0
2017-03-13T00:04:24.395Z,0
2017-03-13T00:05:34.959Z,0
2017-03-13T00:06:45.680Z,0
2017-03-13T00:07:55.838Z,0
2017-03-13T00:09:06.396Z,0
2017-03-13T00:10:16.949Z,0
2017-03-13T00:11:26.723Z,0
2017-03-13T00:12:37.430Z,0
2017-03-13T00:13:47.588Z,0
2017-03-13T00:14:58.162Z,0
2017-03-13T00:16:08.753Z,0
2017-03-13T00:17:19.314Z,0
2017-03-13T00:18:29.939Z,0
2017-03-13T00:19:40.918Z,0
2017-03-13T00:20:51.488Z,0
2017-03-13T00:22:02.061Z,0
2017-03-13T00:23:12.218Z,0
2017-03-13T00:24:22.195Z,0
2017-03-13T00:25:32.762Z,0
2017-03-13T00:26:43.343Z,0
2017-03-13T00:27:53.477Z,0
2017-03-13T00:29:03.630Z,0
2017-03-13T00:30:13.114Z,0
2017-03-13T00:31:23.261Z,0
2017-03-13T00:32:33.818Z,0
2017-03-13T00:33:43.969Z,0
2017-03-13T00:34:53.293Z,0
2017-03-13T00:36:03.201Z,0
2017-03-13T00:37:13.762Z,0
2017-03-13T00:38:24.332Z,0
2017-03-13T00:39:34.893Z,0
2017-03-13T00:40:45.078Z,0
2017-03-13T00:41:56.358Z,0
2017-03-13T00:43:06.507Z,0
2017-03-13T00:44:16.684Z,0
2017-03-13T00:45:26.837Z,0
2017-03-13T00:46:37.014Z,0
2017-03-13T00:47:46.400Z,0
2017-03-13T00:48:56.141Z,0
2017-03-13T00:50:06.281Z,0
2017-03-13T00:51:16.021Z,0
2017-03-13T00:52:25.763Z,0
2017-03-13T00:53:36.326Z,0
2017-03-13T00:54:46.892Z,0
2017-03-13T00:55:57.471Z,0
2017-03-13T00:57:08.081Z,0
2017-03-13T00:58:18.228Z,0
2017-03-13T00:59:27.970Z,0
2017-03-13T01:00:38.543Z,0
2017-03-13T01:01:48.298Z,0
2017-03-13T01:02:58.514Z,0
2017-03-13T01:04:09.067Z,0
2017-03-13T01:05:19.404Z,0
2017-03-13T01:06:29.959Z,0
2017-03-13T01:07:40.526Z,0
2017-03-13T01:08:50.681Z,0
2017-03-13T01:10:00.826Z,0
2017-03-13T01:11:11.796Z,0
2017-03-13T01:12:22.369Z,0
2017-03-13T01:13:32.128Z,0
2017-03-13T01:14:42.702Z,0
2017-03-13T01:15:52.469Z,0
2017-03-13T01:17:02.365Z,0
2017-03-13T01:18:12.115Z,0
2017-03-13T01:19:22.269Z,0
2017-03-13T01:20:31.188Z,0
2017-03-13T01:21:41.353Z,0
2017-03-13T01:22:52.063Z,0
2017-03-13T01:24:02.246Z,0
2017-03-13T01:25:12.015Z,0
2017-03-13T01:26:22.994Z,0
2017-03-13T01:27:33.145Z,0
2017-03-13T01:28:42.533Z,0
2017-03-13T01:29:53.085Z,0
2017-03-13T01:31:02.850Z,0
2017-03-13T01:32:12.609Z,0
2017-03-13T01:33:22.353Z,0
2017-03-13T01:34:33.089Z,0
2017-03-13T01:35:43.273Z,0
2017-03-13T01:36:52.604Z,0
2017-03-13T01:38:03.167Z,0
2017-03-13T01:39:13.323Z,0
2017-03-13T01:40:24.036Z,0
2017-03-13T01:41:34.605Z,0
2017-03-13T01:42:44.749Z,0
2017-03-13T01:43:54.898Z,0
2017-03-13T01:45:05.052Z,0
2017-03-13T01:46:14.809Z,0
2017-03-13T01:47:24.959Z,0
2017-03-13T01:48:35.539Z,0
2017-03-13T01:49:46.103Z,0
2017-03-13T01:50:56.693Z,0
2017-03-13T01:52:07.018Z,0
2017-03-13T01:53:17.170Z,0
2017-03-13T01:54:27.727Z,0
2017-03-13T01:55:38.277Z,0
2017-03-13T01:56:48.432Z,0
2017-03-13T01:57:57.909Z,0
2017-03-13T01:59:07.238Z,0
2017-03-13T02:00:17.390Z,0
2017-03-13T02:01:27.125Z,0
2017-03-13T02:02:37.278Z,0
2017-03-13T02:03:47.592Z,0
2017-03-13T02:04:57.768Z,0
2017-03-13T02:06:08.332Z,0
2017-03-13T02:07:18.076Z,0
2017-03-13T02:08:28.625Z,0
2017-03-13T02:09:38.930Z,0
2017-03-13T02:10:49.091Z,0
2017-03-13T02:11:59.235Z,0
2017-03-13T02:13:09.401Z,0
2017-03-13T02:14:19.143Z,0
2017-03-13T02:15:29.996Z,0
2017-03-13T02:16:39.363Z,0
2017-03-13T02:17:49.109Z,0
2017-03-13T02:18:58.846Z,0
2017-03-13T02:20:08.587Z,0
2017-03-13T02:21:18.753Z,0
2017-03-13T02:22:28.899Z,0
2017-03-13T02:23:38.646Z,0
2017-03-13T02:24:48.861Z,0
2017-03-13T02:25:59.426Z,0
2017-03-13T02:27:09.782Z,0
2017-03-13T02:28:20.354Z,0
2017-03-13T02:29:31.319Z,0
2017-03-13T02:30:41.926Z,0
2017-03-13T02:31:52.081Z,0
2017-03-13T02:33:02.394Z,0
2017-03-13T02:34:12.962Z,0
2017-03-13T02:35:22.700Z,0
2017-03-13T02:36:32.443Z,0
2017-03-13T02:37:43.008Z,0
2017-03-13T02:38:53.184Z,0
2017-03-13T02:40:03.351Z,0
2017-03-13T02:41:13.915Z,0
2017-03-13T02:42:24.465Z,0
2017-03-13T02:43:34.622Z,0
2017-03-13T02:44:44.530Z,0
2017-03-13T02:45:54.275Z,0
2017-03-13T02:47:04.460Z,0
2017-03-13T02:48:15.027Z,0
2017-03-13T02:49:26.005Z,0
2017-03-13T02:50:36.307Z,0
2017-03-13T02:51:46.879Z,0
2017-03-13T02:52:57.458Z,0
2017-03-13T02:54:07.611Z,0
2017-03-13T02:55:17.758Z,0
2017-03-13T02:56:27.746Z,0
2017-03-13T02:57:38.307Z,0
2017-03-13T02:58:47.661Z,0
2017-03-13T02:59:56.575Z,0
2017-03-13T03:01:06.736Z,0
2017-03-13T03:02:17.020Z,0
2017-03-13T03:03:27.185Z,0
2017-03-13T03:04:38.166Z,0
2017-03-13T03:05:48.320Z,0
2017-03-13T03:06:58.475Z,0
2017-03-13T03:08:08.224Z,0
2017-03-13T03:09:18.777Z,0
2017-03-13T03:10:29.333Z,0
2017-03-13T03:11:39.894Z,0
2017-03-13T03:12:49.223Z,0
2017-03-13T03:13:59.391Z,0
2017-03-13T03:15:08.327Z,0
2017-03-13T03:16:18.892Z,0
2017-03-13T03:17:29.054Z,0
2017-03-13T03:18:39.206Z,0
2017-03-13T03:19:49.781Z,0
2017-03-13T03:21:00.756Z,0
2017-03-13T03:22:10.512Z,0
2017-03-13T03:23:21.067Z,0
2017-03-13T03:24:30.847Z,0
2017-03-13T03:25:42.003Z,0
2017-03-13T03:26:52.145Z,0
2017-03-13T03:28:02.301Z,0
2017-03-13T03:29:12.033Z,0
2017-03-13T03:30:21.375Z,0
2017-03-13T03:31:31.678Z,0
2017-03-13T03:32:42.247Z,0
2017-03-13T03:33:52.397Z,0
2017-03-13T03:35:02.552Z,0
2017-03-13T03:36:12.713Z,0
2017-03-13T03:37:22.922Z,0
2017-03-13T03:38:33.102Z,0
2017-03-13T03:39:43.256Z,0
2017-03-13T03:40:52.996Z,0
2017-03-13T03:42:03.554Z,0
2017-03-13T03:43:13.842Z,0
2017-03-13T03:44:23.575Z,0
2017-03-13T03:45:33.739Z,0
2017-03-13T03:46:44.309Z,0
2017-03-13T03:47:53.654Z,0
2017-03-13T03:49:03.439Z,0
2017-03-13T03:50:13.602Z,0
2017-03-13T03:51:23.748Z,0
2017-03-13T03:52:33.495Z,0
2017-03-13T03:53:44.051Z,0
2017-03-13T03:54:54.758Z,0
2017-03-13T03:56:04.914Z,0
2017-03-13T03:57:15.468Z,0
2017-03-13T03:58:25.211Z,0
2017-03-13T03:59:35.775Z,0
2017-03-13T04:00:46.099Z,0
2017-03-13T04:01:55.437Z,0
2017-03-13T04:03:05.609Z,0
2017-03-13T04:04:15.790Z,0
2017-03-13T04:05:26.370Z,0
2017-03-13T04:06:36.684Z,0
2017-03-13T04:07:46.831Z,0
2017-03-13T04:08:56.574Z,0
2017-03-13T04:10:06.319Z,0
2017-03-13T04:11:15.670Z,0
2017-03-13T04:12:25.259Z,0
2017-03-13T04:13:35.815Z,0
2017-03-13T04:14:46.388Z,0
2017-03-13T04:15:56.938Z,0
2017-03-13T04:17:07.525Z,0
2017-03-13T04:18:17.763Z,0
2017-03-13T04:19:27.510Z,0
2017-03-13T04:20:37.667Z,0
2017-03-13T04:21:47.818Z,0
2017-03-13T04:22:57.992Z,0
2017-03-13T04:24:08.670Z,0
2017-03-13T04:25:17.994Z,0
2017-03-13T04:26:28.157Z,0
2017-03-13T04:27:38.307Z,0
2017-03-13T04:28:48.447Z,0
2017-03-13T04:29:59.029Z,0
2017-03-13T04:31:09.177Z,0
2017-03-13T04:32:18.497Z,0
2017-03-13T04:33:29.047Z,0
2017-03-13T04:34:39.610Z,0
2017-03-13T04:35:50.347Z,0
2017-03-13T04:37:00.079Z,0
2017-03-13T04:38:09.421Z,0
2017-03-13T04:39:19.161Z,0
2017-03-13T04:40:29.306Z,0
2017-03-13T04:41:39.467Z,0
2017-03-13T04:42:49.229Z,0
2017-03-13T04:43:59.812Z,0
2017-03-13T04:45:09.141Z,0
2017-03-13T04:46:19.289Z,0
2017-03-13T04:47:29.956Z,0
2017-03-13T04:48:40.924Z,0
2017-03-13T04:49:51.509Z,0
2017-03-13T04:51:01.674Z,0
2017-03-13T04:52:11.855Z,0
2017-03-13T04:53:21.674Z,0
2017-03-13T04:54:32.254Z,0
2017-03-13T04:55:42.419Z,0
2017-03-13T04:56:51.742Z,0
2017-03-13T04:58:01.880Z,0
2017-03-13T04:59:11.925Z,0
2017-03-13T05:00:22.083Z,0
2017-03-13T05:01:33.045Z,0
2017-03-13T05:02:43.612Z,0
2017-03-13T05:03:54.182Z,0
2017-03-13T05:05:04.035Z,0
2017-03-13T05:06:12.963Z,0
2017-03-13T05:07:23.531Z,0
2017-03-13T05:08:34.105Z,0
2017-03-13T05:09:44.258Z,0
2017-03-13T05:10:54.052Z,0
2017-03-13T05:12:04.608Z,0
2017-03-13T05:13:14.345Z,0
2017-03-13T05:14:24.482Z,0
2017-03-13T05:15:35.062Z,0
2017-03-13T05:16:44.756Z,0
2017-03-13T05:17:54.498Z,0
2017-03-13T05:19:03.840Z,0
2017-03-13T05:20:14.006Z,0
2017-03-13T05:21:24.156Z,0
2017-03-13T05:22:34.410Z,0
2017-03-13T05:23:44.552Z,0
2017-03-13T05:24:54.291Z,0
2017-03-13T05:26:04.859Z,0
2017-03-13T05:27:15.009Z,0
2017-03-13T05:28:25.345Z,0
2017-03-13T05:29:35.908Z,0
2017-03-13T05:30:46.476Z,0
2017-03-13T05:31:56.680Z,0
2017-03-13T05:33:07.258Z,0
2017-03-13T05:34:17.966Z,0
2017-03-13T05:35:28.513Z,0
2017-03-13T05:36:39.071Z,0
2017-03-13T05:37:48.813Z,5
2017-03-13T05:38:58.967Z,5
2017-03-13T05:40:08.557Z,5
2017-03-13T05:41:17.896Z,5
2017-03-13T05:42:28.033Z,5
2017-03-13T05:43:38.184Z,5
2017-03-13T05:44:48.337Z,10
2017-03-13T05:45:58.994Z,10
2017-03-13T05:47:09.130Z,10
2017-03-13T05:48:19.695Z,10
2017-03-13T05:49:30.294Z,10
2017-03-13T05:50:40.495Z,15
2017-03-13T05:51:50.802Z,15
2017-03-13T05:53:00.979Z,15
2017-03-13T05:54:11.120Z,20
2017-03-13T05:55:21.268Z,20
2017-03-13T05:56:31.004Z,20
2017-03-13T05:57:41.807Z,25
2017-03-13T05:58:51.967Z,25
2017-03-13T06:00:01.742Z,25
2017-03-13T06:01:11.918Z,25
2017-03-13T06:02:21.656Z,30
2017-03-13T06:03:31.804Z,30
2017-03-13T06:04:42.352Z,35
2017-03-13T06:05:52.519Z,35
2017-03-13T06:07:01.865Z,35
2017-03-13T06:08:10.771Z,40
2017-03-13T06:09:20.097Z,40
2017-03-13T06:10:30.262Z,45
2017-03-13T06:11:40.850Z,45
2017-03-13T06:12:51.461Z,50
2017-03-13T06:14:02.011Z,50
2017-03-13T06:15:12.595Z,50
2017-03-13T06:16:22.333Z,55
2017-03-13T06:17:33.295Z,60
2017-03-13T06:18:43.461Z,65
2017-03-13T06:19:53.187Z,65
2017-03-13T06:21:03.766Z,70
2017-03-13T06:22:13.909Z,75
2017-03-13T06:23:23.265Z,75
2017-03-13T06:24:33.403Z,75
2017-03-13T06:25:43.959Z,80
2017-03-13T06:26:54.514Z,80
2017-03-13T06:28:05.066Z,85
2017-03-13T06:29:15.616Z,85
2017-03-13T06:30:25.772Z,90
2017-03-13T06:31:36.329Z,90
2017-03-13T06:32:46.893Z,90
2017-03-13T06:33:57.459Z,95
2017-03-13T06:35:07.600Z,95
2017-03-13T06:36:17.750Z,100
2017-03-13T06:37:27.901Z,100
2017-03-13T06:38:38.114Z,105
2017-03-13T06:39:48.276Z,105
2017-03-13T06:40:57.616Z,110
2017-03-13T06:42:07.772Z,115
2017-03-13T06:43:18.357Z,115
2017-03-13T06:44:29.333Z,120
2017-03-13T06:45:39.898Z,125
2017-03-13T06:46:50.455Z,125
2017-03-13T06:48:00.193Z,125
2017-03-13T06:49:10.912Z,125
2017-03-13T06:50:20.247Z,130
2017-03-13T06:51:30.411Z,130
2017-03-13T06:52:40.997Z,130
2017-03-13T06:53:51.971Z,135
2017-03-13T06:55:02.331Z,135
2017-03-13T06:56:12.077Z,140
2017-03-13T06:57:22.227Z,140
2017-03-13T06:58:32.372Z,145
2017-03-13T06:59:42.555Z,150
2017-03-13T07:00:52.300Z,150
2017-03-13T07:02:02.045Z,155
2017-03-13T07:03:12.219Z,155
2017-03-13T07:04:22.352Z,160
2017-03-13T07:05:32.519Z,160
2017-03-13T07:06:43.350Z,165
2017-03-13T07:07:53.930Z,165
2017-03-13T07:09:04.094Z,170
2017-03-13T07:10:13.421Z,170
2017-03-13T07:11:23.187Z,175
2017-03-13T07:12:32.975Z,180
2017-03-13T07:13:43.542Z,180
2017-03-13T07:14:53.704Z,185
2017-03-13T07:16:03.888Z,190
2017-03-13T07:17:14.465Z,195
2017-03-13T07:18:25.341Z,200
2017-03-13T07:19:35.488Z,205
2017-03-13T07:20:45.639Z,210
2017-03-13T07:21:54.974Z,210
2017-03-13T07:23:05.116Z,215
2017-03-13T07:24:15.326Z,220
2017-03-13T07:25:25.886Z,220
2017-03-13T07:26:36.042Z,225
2017-03-13T07:27:46.193Z,230
2017-03-13T07:28:56.354Z,235
2017-03-13T07:30:05.845Z,240
2017-03-13T07:31:16.410Z,245
2017-03-13T07:32:26.966Z,245
2017-03-13T07:33:36.951Z,250
2017-03-13T07:34:47.125Z,250
2017-03-13T07:35:58.259Z,255
2017-03-13T07:37:08.654Z,260
2017-03-13T07:38:18.709Z,265
2017-03-13T07:39:29.278Z,270
2017-03-13T07:40:39.853Z,275
2017-03-13T07:41:50.225Z,275
2017-03-13T07:43:00.005Z,280
2017-03-13T07:44:10.594Z,275
2017-03-13T07:45:20.817Z,270
2017-03-13T07:46:30.646Z,270
2017-03-13T07:47:41.427Z,270
2017-03-13T07:48:51.992Z,270
2017-03-13T07:50:01.761Z,275
2017-03-13T07:51:11.506Z,275
2017-03-13T07:52:21.668Z,280
2017-03-13T07:53:31.748Z,280
2017-03-13T07:54:42.773Z,285
2017-03-13T07:55:52.941Z,280
2017-03-13T07:57:02.286Z,280
2017-03-13T07:58:12.840Z,275
2017-03-13T07:59:23.007Z,275
2017-03-13T08:00:33.171Z,270
2017-03-13T08:01:42.919Z,265
2017-03-13T08:02:52.256Z,260
2017-03-13T08:04:02.025Z,260
2017-03-13T08:05:11.114Z,260
2017-03-13T08:06:21.715Z,260
2017-03-13T08:07:31.523Z,265
2017-03-13T08:08:42.486Z,270
2017-03-13T08:09:52.640Z,270
2017-03-13T08:11:03.458Z,270
2017-03-13T08:12:13.621Z,275
2017-03-13T08:13:24.404Z,275
2017-03-13T08:14:34.972Z,275
2017-03-13T08:15:44.725Z,275
2017-03-13T08:16:55.313Z,275
2017-03-13T08:18:04.664Z,275
2017-03-13T08:19:15.214Z,275
2017-03-13T08:20:26.224Z,275
2017-03-13T08:21:36.846Z,275
2017-03-13T08:22:47.039Z,280
2017-03-13T08:23:56.787Z,280
2017-03-13T08:25:06.955Z,280
2017-03-13T08:26:16.690Z,285
2017-03-13T08:27:26.018Z,285
2017-03-13T08:28:36.738Z,290
2017-03-13T08:29:46.082Z,295
2017-03-13T08:30:55.412Z,295
2017-03-13T08:32:05.163Z,300
2017-03-13T08:33:14.912Z,305
2017-03-13T08:34:24.826Z,315
2017-03-13T08:35:34.565Z,320
2017-03-13T08:36:44.728Z,325
2017-03-13T08:37:54.507Z,330
2017-03-13T08:39:05.063Z,335
2017-03-13T08:40:15.875Z,335
2017-03-13T08:41:25.198Z,335
2017-03-13T08:42:34.528Z,340
2017-03-13T08:43:44.291Z,340
2017-03-13T08:44:54.454Z,340
2017-03-13T08:46:05.073Z,340
2017-03-13T08:47:15.226Z,340
2017-03-13T08:48:25.408Z,335
2017-03-13T08:49:35.176Z,330
2017-03-13T08:50:45.336Z,320
2017-03-13T08:51:55.681Z,315
2017-03-13T08:53:05.446Z,305
2017-03-13T08:54:16.000Z,295
2017-03-13T08:55:26.167Z,285
2017-03-13T08:56:36.348Z,280
2017-03-13T08:57:46.558Z,280
2017-03-13T08:58:56.712Z,280
2017-03-13T09:00:05.655Z,285
2017-03-13T09:01:16.645Z,295
2017-03-13T09:02:26.373Z,295
2017-03-13T09:03:36.674Z,295
2017-03-13T09:04:47.261Z,295
2017-03-13T09:05:57.823Z,295
2017-03-13T09:07:07.976Z,280
2017-03-13T09:08:18.144Z,255
2017-03-13T09:09:27.900Z,235
2017-03-13T09:10:37.636Z,215
2017-03-13T09:11:48.210Z,200
2017-03-13T09:12:57.968Z,190
2017-03-13T09:14:07.733Z,185
2017-03-13T09:15:18.309Z,180
2017-03-13T09:16:28.463Z,180
2017-03-13T09:17:37.806Z,180
2017-03-13T09:18:48.381Z,185
2017-03-13T09:19:58.540Z,190
2017-03-13T09:21:09.250Z,195
2017-03-13T09:22:19.817Z,200
2017-03-13T09:23:29.977Z,210
2017-03-13T09:24:39.306Z,215
2017-03-13T09:25:48.645Z,215
2017-03-13T09:26:58.782Z,230
2017-03-13T09:28:08.943Z,230
2017-03-13T09:29:18.684Z,235
2017-03-13T09:30:29.239Z,245
2017-03-13T09:31:39.805Z,245
2017-03-13T09:32:49.607Z,250
2017-03-13T09:34:00.163Z,245
2017-03-13T09:35:10.316Z,245
2017-03-13T09:36:20.060Z,250
2017-03-13T09:37:30.224Z,255
2017-03-13T09:38:39.705Z,250
2017-03-13T09:39:50.272Z,250
2017-03-13T09:40:59.594Z,275
2017-03-13T09:42:08.961Z,295
2017-03-13T09:43:18.696Z,315
2017-03-13T09:44:28.950Z,345
2017-03-13T09:45:39.535Z,355
2017-03-13T09:46:49.284Z,365
2017-03-13T09:47:59.443Z,375
2017-03-13T09:49:10.009Z,375
2017-03-13T09:50:20.877Z,390
2017-03-13T09:51:31.433Z,385
2017-03-13T09:52:41.176Z,405
2017-03-13T09:53:51.345Z,425
2017-03-13T09:55:01.483Z,445
2017-03-13T09:56:11.521Z,475
2017-03-13T09:57:21.679Z,490
2017-03-13T09:58:31.863Z,510
2017-03-13T09:59:42.029Z,545
2017-03-13T10:00:52.174Z,560
2017-03-13T10:02:02.482Z,580
2017-03-13T10:03:12.651Z,575
2017-03-13T10:04:22.825Z,575
2017-03-13T10:05:32.194Z,575
2017-03-13T10:06:42.764Z,570
2017-03-13T10:07:53.445Z,555
2017-03-13T10:09:04.415Z,550
2017-03-13T10:10:14.558Z,540
2017-03-13T10:11:24.723Z,530
2017-03-13T10:12:34.889Z,525
2017-03-13T10:13:45.721Z,530
2017-03-13T10:14:56.713Z,530
2017-03-13T10:16:07.280Z,530
2017-03-13T10:17:17.019Z,525
2017-03-13T10:18:27.179Z,510
2017-03-13T10:19:37.284Z,495
2017-03-13T10:20:47.441Z,480
2017-03-13T10:21:58.011Z,445
2017-03-13T10:23:08.172Z,415
2017-03-13T10:24:17.933Z,390
2017-03-13T10:25:27.843Z,370
2017-03-13T10:26:38.038Z,355
2017-03-13T10:27:48.613Z,345
2017-03-13T10:28:59.181Z,330
2017-03-13T10:30:08.918Z,320
2017-03-13T10:31:18.718Z,325
2017-03-13T10:32:28.488Z,320
2017-03-13T10:33:39.470Z,330
2017-03-13T10:34:49.631Z,360
2017-03-13T10:35:58.546Z,375
2017-03-13T10:37:07.908Z,380
2017-03-13T10:38:17.666Z,390
2017-03-13T10:39:28.228Z,400
2017-03-13T10:40:38.390Z,410
2017-03-13T10:41:49.370Z,405
2017-03-13T10:42:59.691Z,400
2017-03-13T10:44:10.262Z,395
2017-03-13T10:45:20.014Z,385
2017-03-13T10:46:29.769Z,365
2017-03-13T10:47:40.739Z,340
2017-03-13T10:48:51.454Z,315
2017-03-13T10:50:02.014Z,305
2017-03-13T10:51:12.183Z,315
2017-03-13T10:52:21.928Z,320
2017-03-13T10:53:31.695Z,335
2017-03-13T10:54:42.744Z,340
2017-03-13T10:55:52.914Z,340
2017-03-13T10:57:03.084Z,345
2017-03-13T10:58:12.864Z,350
2017-03-13T10:59:22.598Z,355
2017-03-13T11:00:32.021Z,355
2017-03-13T11:01:42.571Z,360
2017-03-13T11:02:52.745Z,365
2017-03-13T11:04:02.509Z,380
2017-03-13T11:05:11.843Z,400
2017-03-13T11:06:22.249Z,425
2017-03-13T11:07:32.005Z,440
2017-03-13T11:08:42.196Z,470
2017-03-13T11:09:52.789Z,500
2017-03-13T11:11:02.947Z,540
2017-03-13T11:12:12.856Z,595
2017-03-13T11:13:23.816Z,660
2017-03-13T11:14:33.564Z,700
2017-03-13T11:15:43.332Z,730
2017-03-13T11:16:53.884Z,755
2017-03-13T11:18:04.507Z,780
2017-03-13T11:19:14.243Z,785
2017-03-13T11:20:23.982Z,755
2017-03-13T11:21:34.562Z,735
2017-03-13T11:22:45.137Z,710
2017-03-13T11:23:55.008Z,690
2017-03-13T11:25:04.757Z,670
2017-03-13T11:26:14.918Z,665
2017-03-13T11:27:25.472Z,660
2017-03-13T11:28:35.634Z,655
2017-03-13T11:29:45.440Z,660
2017-03-13T11:30:55.601Z,665
2017-03-13T11:32:05.363Z,675
2017-03-13T11:33:15.936Z,680
2017-03-13T11:34:26.100Z,675
2017-03-13T11:35:36.316Z,670
2017-03-13T11:36:46.090Z,665
2017-03-13T11:37:56.244Z,655
2017-03-13T11:39:05.985Z,645
2017-03-13T11:40:15.745Z,630
2017-03-13T11:41:26.362Z,615
2017-03-13T11:42:35.714Z,600
2017-03-13T11:43:46.690Z,590
2017-03-13T11:44:56.862Z,580
2017-03-13T11:46:06.660Z,570
2017-03-13T11:47:17.146Z,560
2017-03-13T11:48:27.321Z,560
2017-03-13T11:49:37.481Z,560
2017-03-13T11:50:48.055Z,545
2017-03-13T11:51:57.822Z,530
2017-03-13T11:53:07.424Z,520
2017-03-13T11:54:16.767Z,510
2017-03-13T11:55:27.321Z,510
2017-03-13T11:56:37.490Z,500
2017-03-13T11:57:48.052Z,500
2017-03-13T11:58:58.866Z,480
2017-03-13T12:00:09.054Z,470
2017-03-13T12:01:19.199Z,465
2017-03-13T12:02:29.377Z,450
2017-03-13T12:03:38.714Z,445
2017-03-13T12:04:48.564Z,430
2017-03-13T12:05:58.721Z,430
2017-03-13T12:07:08.880Z,430
2017-03-13T12:08:19.050Z,435
2017-03-13T12:09:29.619Z,435
2017-03-13T12:10:39.074Z,435
2017-03-13T12:11:49.247Z,445
2017-03-13T12:12:59.007Z,450
2017-03-13T12:14:09.186Z,465
2017-03-13T12:15:18.934Z,485
2017-03-13T12:16:29.228Z,495
2017-03-13T12:17:39.408Z,510
2017-03-13T12:18:49.187Z,525
2017-03-13T12:19:59.762Z,540
2017-03-13T12:21:09.128Z,560
2017-03-13T12:22:19.448Z,575
2017-03-13T12:23:30.414Z,590
2017-03-13T12:24:40.163Z,600
2017-03-13T12:25:50.726Z,685
2017-03-13T12:27:00.870Z,585
2017-03-13T12:28:11.033Z,640
2017-03-13T12:29:21.631Z,600
2017-03-13T12:30:31.821Z,1145
2017-03-13T12:31:41.581Z,825
2017-03-13T12:32:52.206Z,975
2017-03-13T12:34:03.080Z,640
2017-03-13T12:35:12.424Z,915
2017-03-13T12:36:22.600Z,1255
2017-03-13T12:37:33.196Z,1085
2017-03-13T12:38:43.361Z,945
2017-03-13T12:39:53.572Z,905
2017-03-13T12:41:03.799Z,1455
2017-03-13T12:42:13.559Z,1270
2017-03-13T12:43:24.134Z,865
2017-03-13T12:44:33.872Z,895
2017-03-13T12:45:43.360Z,1260
2017-03-13T12:46:53.934Z,1515
2017-03-13T12:48:04.109Z,1215
2017-03-13T12:49:14.678Z,1250
2017-03-13T12:50:24.041Z,1355
2017-03-13T12:51:34.916Z,1240
2017-03-13T12:54:17.132Z,1500
2017-03-13T12:55:26.881Z,1050
2017-03-13T12:56:37.201Z,1695
2017-03-13T12:57:47.776Z,915
2017-03-13T12:58:57.129Z,960
2017-03-13T13:00:07.047Z,1165
2017-03-13T13:01:17.618Z,950
2017-03-13T13:02:27.482Z,770
2017-03-13T13:03:36.800Z,735
2017-03-13T13:04:47.343Z,1730
2017-03-13T13:05:57.466Z,905
2017-03-13T13:07:06.784Z,685
2017-03-13T13:08:17.270Z,640
2017-03-13T13:09:27.398Z,710
2017-03-13T13:10:37.115Z,555
2017-03-13T13:11:46.019Z,725
2017-03-13T13:12:54.916Z,1215
2017-03-13T13:14:03.811Z,985
2017-03-13T13:15:12.711Z,1355
2017-03-13T13:16:22.017Z,1250
2017-03-13T13:17:31.321Z,1040
2017-03-13T13:18:41.037Z,1070
2017-03-13T13:19:51.622Z,1255
2017-03-13T13:21:02.156Z,1685
2017-03-13T13:22:12.705Z,1830
2017-03-13T13:23:22.026Z,1710
2017-03-13T13:24:32.162Z,1165
2017-03-13T13:25:42.546Z,995
2017-03-13T13:26:53.078Z,430
2017-03-13T13:28:02.389Z,445
2017-03-13T13:29:12.927Z,555
2017-03-13T13:30:22.654Z,655
2017-03-13T13:31:33.344Z,1030
2017-03-13T13:32:43.883Z,1030
2017-03-13T13:33:53.601Z,1405
2017-03-13T13:35:04.134Z,1240
2017-03-13T13:36:13.850Z,1065
2017-03-13T13:37:24.948Z,925
2017-03-13T13:38:35.084Z,730
2017-03-13T13:39:45.621Z,755
2017-03-13T13:40:56.201Z,820
2017-03-13T13:42:06.740Z,1310
2017-03-13T13:43:17.016Z,1660
2017-03-13T13:44:26.329Z,925
2017-03-13T13:45:36.059Z,830
2017-03-13T13:46:46.596Z,700
2017-03-13T13:47:56.724Z,835
2017-03-13T13:49:06.493Z,1235
2017-03-13T13:50:15.800Z,1665
2017-03-13T13:51:25.515Z,1235
2017-03-13T13:52:36.077Z,610
2017-03-13T13:53:46.208Z,610
2017-03-13T13:54:56.895Z,1370
2017-03-13T13:56:06.614Z,1635
2017-03-13T13:57:16.340Z,1565
2017-03-13T13:58:26.477Z,1540
2017-03-13T13:59:36.609Z,830
2017-03-13T14:00:47.419Z,785
2017-03-13T14:01:57.564Z,1320
2017-03-13T14:03:07.444Z,750
2017-03-13T14:04:17.179Z,650
2017-03-13T14:05:27.355Z,630
2017-03-13T14:06:37.692Z,645
2017-03-13T14:07:47.413Z,695
2017-03-13T14:08:57.950Z,680
2017-03-13T14:10:08.134Z,560
2017-03-13T14:11:18.681Z,500
2017-03-13T14:12:28.964Z,475
2017-03-13T14:13:38.682Z,510
2017-03-13T14:14:48.803Z,570
2017-03-13T14:15:58.583Z,625
2017-03-13T14:17:08.768Z,675
2017-03-13T14:18:18.634Z,625
2017-03-13T14:19:28.789Z,580
2017-03-13T14:20:38.913Z,580
2017-03-13T14:21:49.872Z,745
2017-03-13T14:23:00.000Z,1550
2017-03-13T14:24:10.791Z,755
2017-03-13T14:25:20.917Z,710
2017-03-13T14:26:31.455Z,680
2017-03-13T14:27:41.580Z,710
2017-03-13T14:28:51.701Z,665
2017-03-13T14:30:01.924Z,625
2017-03-13T14:31:12.047Z,575
2017-03-13T14:32:22.173Z,545
2017-03-13T14:33:32.706Z,575
2017-03-13T14:34:43.244Z,755
2017-03-13T14:35:52.142Z,805
2017-03-13T14:37:01.856Z,715
2017-03-13T14:38:12.803Z,640
2017-03-13T14:39:23.333Z,780
2017-03-13T14:40:33.466Z,385
2017-03-13T14:41:43.180Z,350
2017-03-13T14:42:52.072Z,315
2017-03-13T14:44:02.199Z,285
2017-03-13T14:45:12.316Z,255
2017-03-13T14:46:22.441Z,235
2017-03-13T14:47:32.167Z,230
2017-03-13T14:48:42.697Z,215
2017-03-13T14:49:52.436Z,210
2017-03-13T14:51:02.559Z,200
2017-03-13T14:52:12.678Z,210
2017-03-13T14:53:22.803Z,210
2017-03-13T14:54:32.382Z,200
2017-03-13T14:55:43.474Z,185
2017-03-13T14:56:54.005Z,170
2017-03-13T14:58:04.980Z,160
2017-03-13T14:59:15.523Z,145
2017-03-13T15:00:25.656Z,140
2017-03-13T15:01:36.743Z,150
2017-03-13T15:02:46.880Z,150
2017-03-13T15:03:57.822Z,155
2017-03-13T15:05:07.129Z,165
2017-03-13T15:06:17.256Z,175
2017-03-13T15:07:27.729Z,170
2017-03-13T15:08:37.444Z,150
2017-03-13T15:09:47.576Z,145
2017-03-13T15:10:57.298Z,140
2017-03-13T15:12:07.047Z,135
2017-03-13T15:13:16.627Z,140
2017-03-13T15:14:27.165Z,135
2017-03-13T15:15:37.291Z,125
2017-03-13T15:16:47.823Z,125
2017-03-13T15:17:57.944Z,115
2017-03-13T15:19:07.810Z,115
2017-03-13T15:20:17.598Z,125
2017-03-13T15:21:27.428Z,135
2017-03-13T15:22:37.550Z,150
2017-03-13T15:23:47.688Z,150
2017-03-13T15:24:57.554Z,155
2017-03-13T15:26:07.270Z,145
2017-03-13T15:27:17.803Z,135
2017-03-13T15:28:28.341Z,125
2017-03-13T15:29:37.645Z,130
2017-03-13T15:30:47.360Z,145
2017-03-13T15:31:57.885Z,140
2017-03-13T15:33:08.046Z,130
2017-03-13T15:34:18.576Z,125
2017-03-13T15:35:28.701Z,130
2017-03-13T15:36:38.514Z,140
2017-03-13T15:37:49.043Z,145
2017-03-13T15:38:58.763Z,135
2017-03-13T15:40:08.907Z,130
2017-03-13T15:41:19.025Z,125
2017-03-13T15:42:29.103Z,125
2017-03-13T15:43:39.230Z,110
2017-03-13T15:44:49.761Z,100
2017-03-13T15:45:59.885Z,95
2017-03-13T15:47:10.013Z,95
2017-03-13T15:48:20.304Z,100
2017-03-13T15:49:30.425Z,110
2017-03-13T15:50:40.145Z,120
2017-03-13T15:51:49.871Z,125
2017-03-13T15:53:00.411Z,120
2017-03-13T15:54:10.520Z,110
2017-03-13T15:55:20.716Z,120
2017-03-13T15:56:30.851Z,120
2017-03-13T15:57:41.380Z,135
2017-03-13T15:58:51.090Z,150
2017-03-13T16:00:00.646Z,155
2017-03-13T16:01:10.365Z,160
2017-03-13T16:02:20.086Z,170
2017-03-13T16:03:31.024Z,180
2017-03-13T16:04:41.150Z,195
2017-03-13T16:05:51.437Z,180
2017-03-13T16:07:01.155Z,155
2017-03-13T16:08:11.278Z,155
2017-03-13T16:09:20.987Z,135
2017-03-13T16:10:31.115Z,130
2017-03-13T16:11:41.288Z,135
2017-03-13T16:12:51.809Z,145
2017-03-13T16:14:02.344Z,170
2017-03-13T16:15:12.871Z,180
2017-03-13T16:16:22.586Z,185
2017-03-13T16:17:32.454Z,200
2017-03-13T16:18:41.753Z,225
2017-03-13T16:19:51.051Z,235
2017-03-13T16:20:59.940Z,235
2017-03-13T16:22:09.654Z,245
2017-03-13T16:23:18.707Z,260
2017-03-13T16:24:27.601Z,290
2017-03-13T16:25:36.903Z,305
2017-03-13T16:26:46.201Z,320
2017-03-13T16:27:55.921Z,325
2017-03-13T16:29:06.503Z,330
2017-03-13T16:30:16.625Z,335
2017-03-13T16:31:26.341Z,325